createdAt,value
2023-04-16T00:01:27.572Z,101082.84
2023-04-16T00:03:55.096Z,101079.38
2023-04-16T00:06:23.173Z,101078.41
2023-04-16T00:08:50.423Z,101076.53
2023-04-16T00:11:17.401Z,101068.72
2023-04-16T00:13:43.994Z,101075.47
2023-04-16T00:16:10.705Z,101079.72
2023-04-16T00:18:37.265Z,101070.19
2023-04-16T00:21:04.002Z,101077.03
2023-04-16T00:23:30.628Z,101073.47
2023-04-16T00:25:59.971Z,101074.25
2023-04-16T00:28:27.720Z,101072.50
2023-04-16T00:30:55.047Z,101076.69
2023-04-16T00:33:21.783Z,101084.34
2023-04-16T00:35:48.837Z,101076.47
2023-04-16T00:38:15.863Z,101072.00
2023-04-16T00:40:42.649Z,101079.66
2023-04-16T00:43:09.208Z,101077.84
2023-04-16T00:45:36.685Z,101071.78
2023-04-16T00:48:04.212Z,101075.13
2023-04-16T00:50:30.976Z,101075.94
2023-04-16T00:52:58.100Z,101077.59
2023-04-16T00:55:24.894Z,101078.44
2023-04-16T00:57:51.472Z,101075.75
2023-04-16T01:00:18.006Z,101075.75
2023-04-16T01:02:44.719Z,101069.72
2023-04-16T01:05:11.426Z,101063.69
2023-04-16T01:07:38.187Z,101068.84
2023-04-16T01:10:05.000Z,101072.22
2023-04-16T01:12:32.570Z,101066.16
2023-04-16T01:14:59.216Z,101065.28
2023-04-16T01:17:26.041Z,101065.25
2023-04-16T01:19:52.657Z,101066.97
2023-04-16T01:22:19.265Z,101077.28
2023-04-16T01:24:46.235Z,101073.00
2023-04-16T01:27:12.825Z,101071.25
2023-04-16T01:29:39.406Z,101073.88
2023-04-16T01:32:06.121Z,101073.88
2023-04-16T01:34:32.719Z,101078.19
2023-04-16T01:36:59.389Z,101080.78
2023-04-16T01:39:26.410Z,101068.72
2023-04-16T01:41:52.963Z,101076.41
2023-04-16T01:44:19.506Z,101061.81
2023-04-16T01:46:46.338Z,101074.72
2023-04-16T01:49:12.991Z,101066.97
2023-04-16T01:51:39.547Z,101067.81
2023-04-16T01:54:06.189Z,101074.72
2023-04-16T01:56:32.851Z,101069.56
2023-04-16T01:58:59.380Z,101078.19
2023-04-16T02:01:26.186Z,101073.88
2023-04-16T02:03:53.589Z,101073.00
2023-04-16T02:06:20.213Z,101074.72
2023-04-16T02:08:46.762Z,101079.00
2023-04-16T02:11:13.394Z,101075.53
2023-04-16T02:13:39.940Z,101075.53
2023-04-16T02:16:06.734Z,101078.94
2023-04-16T02:18:33.336Z,101072.91
2023-04-16T02:21:00.539Z,101075.47
2023-04-16T02:23:27.075Z,101078.06
2023-04-16T02:25:53.747Z,101071.16
2023-04-16T02:28:20.341Z,101073.78
2023-04-16T02:30:46.962Z,101070.38
2023-04-16T02:33:13.613Z,101075.53
2023-04-16T02:35:40.500Z,101069.56
2023-04-16T02:38:07.860Z,101073.00
2023-04-16T02:40:34.845Z,101080.78
2023-04-16T02:43:01.423Z,101069.56
2023-04-16T02:45:27.970Z,101076.50
2023-04-16T02:47:54.669Z,101065.28
2023-04-16T02:50:21.356Z,101068.72
2023-04-16T02:52:48.623Z,101058.34
2023-04-16T02:55:15.181Z,101062.63
2023-04-16T02:57:42.620Z,101065.22
2023-04-16T03:00:09.903Z,101058.34
2023-04-16T03:02:36.615Z,101063.56
2023-04-16T03:05:03.778Z,101061.88
2023-04-16T03:07:30.452Z,101048.97
2023-04-16T03:09:57.275Z,101053.34
2023-04-16T03:12:23.876Z,101051.63
2023-04-16T03:14:52.564Z,101043.91
2023-04-16T03:17:19.299Z,101040.44
2023-04-16T03:19:46.200Z,101041.38
2023-04-16T03:22:13.285Z,101029.31
2023-04-16T03:24:39.897Z,101032.75
2023-04-16T03:27:06.459Z,101032.78
2023-04-16T03:29:33.003Z,101031.00
2023-04-16T03:31:59.607Z,101032.66
2023-04-16T03:34:26.169Z,101027.44
2023-04-16T03:36:52.757Z,101029.13
2023-04-16T03:39:19.327Z,101024.84
2023-04-16T03:41:46.240Z,101022.25
2023-04-16T03:44:12.787Z,101018.84
2023-04-16T03:46:39.439Z,101018.03
2023-04-16T03:49:06.270Z,101019.78
2023-04-16T03:51:33.036Z,101024.16
2023-04-16T03:53:59.633Z,101020.72
2023-04-16T03:56:26.288Z,101023.34
2023-04-16T03:58:52.927Z,101013.91
2023-04-16T04:01:19.518Z,101010.47
2023-04-16T04:03:46.242Z,101008.78
2023-04-16T04:06:13.068Z,101007.09
2023-04-16T04:08:39.607Z,101000.22
2023-04-16T04:11:06.137Z,101004.59
2023-04-16T04:13:32.692Z,101003.69
2023-04-16T04:15:59.286Z,101002.88
2023-04-16T04:18:26.023Z,101002.97
2023-04-16T04:20:52.734Z,100998.69
2023-04-16T04:23:19.332Z,100997.00
2023-04-16T04:25:46.076Z,101002.16
2023-04-16T04:28:12.662Z,101006.47
2023-04-16T04:30:39.238Z,101002.13
2023-04-16T04:33:06.389Z,101006.44
2023-04-16T04:35:33.498Z,101007.25
2023-04-16T04:38:00.176Z,101004.66
2023-04-16T04:40:26.722Z,101005.50
2023-04-16T04:42:53.230Z,101002.03
2023-04-16T04:45:19.763Z,101003.78
2023-04-16T04:47:46.375Z,100997.72
2023-04-16T04:50:12.965Z,101003.78
2023-04-16T04:52:39.524Z,100997.75
2023-04-16T04:55:06.464Z,101007.25
2023-04-16T04:57:33.037Z,101007.25
2023-04-16T04:59:59.629Z,101009.84
2023-04-16T05:02:26.182Z,101015.91
2023-04-16T05:04:52.797Z,101007.31
2023-04-16T05:07:19.340Z,101011.66
2023-04-16T05:09:45.875Z,101013.41
2023-04-16T05:12:12.404Z,101008.22
2023-04-16T05:14:38.993Z,101010.81
2023-04-16T05:17:05.541Z,101012.47
2023-04-16T05:19:32.107Z,101018.38
2023-04-16T05:21:58.683Z,101013.94
2023-04-16T05:24:25.451Z,101023.34
2023-04-16T05:26:52.074Z,101016.41
2023-04-16T05:29:18.664Z,101015.50
2023-04-16T05:31:45.646Z,101017.19
2023-04-16T05:34:12.169Z,101018.84
2023-04-16T05:36:38.680Z,101022.25
2023-04-16T05:39:06.259Z,101028.22
2023-04-16T05:41:32.807Z,101032.53
2023-04-16T05:43:59.407Z,101029.19
2023-04-16T05:46:26.057Z,101034.41
2023-04-16T05:48:52.695Z,101034.47
2023-04-16T05:51:19.501Z,101035.38
2023-04-16T05:53:46.073Z,101041.53
2023-04-16T05:56:12.611Z,101039.91
2023-04-16T05:58:39.149Z,101042.59
2023-04-16T06:01:05.722Z,101040.09
2023-04-16T06:03:32.301Z,101041.13
2023-04-16T06:05:59.107Z,101042.16
2023-04-16T06:08:25.701Z,101050.88
2023-04-16T06:10:52.327Z,101048.44
2023-04-16T06:13:18.893Z,101053.66
2023-04-16T06:15:45.528Z,101054.63
2023-04-16T06:18:12.183Z,101062.47
2023-04-16T06:20:38.790Z,101053.00
2023-04-16T06:23:05.542Z,101057.34
2023-04-16T06:25:32.135Z,101054.81
2023-04-16T06:27:58.743Z,101064.34
2023-04-16T06:30:25.614Z,101067.91
2023-04-16T06:32:53.010Z,101067.16
2023-04-16T06:35:20.376Z,101075.78
2023-04-16T06:37:47.161Z,101070.63
2023-04-16T06:40:13.859Z,101074.13
2023-04-16T06:42:41.196Z,101082.75
2023-04-16T06:45:09.251Z,101086.34
2023-04-16T06:47:35.847Z,101088.13
2023-04-16T06:50:02.482Z,101090.00
2023-04-16T06:52:29.602Z,101094.38
2023-04-16T06:54:56.510Z,101090.16
2023-04-16T06:57:23.032Z,101094.59
2023-04-16T06:59:49.592Z,101096.44
2023-04-16T07:02:16.606Z,101102.59
2023-04-16T07:04:43.245Z,101108.78
2023-04-16T07:07:12.580Z,101106.38
2023-04-16T07:09:39.111Z,101108.28
2023-04-16T07:12:07.051Z,101118.88
2023-04-16T07:14:33.691Z,101124.19
2023-04-16T07:17:00.444Z,101122.66
2023-04-16T07:19:30.604Z,101123.69
2023-04-16T07:21:57.069Z,101130.63
2023-04-16T07:24:23.724Z,101120.47
2023-04-16T07:26:50.305Z,101132.63
2023-04-16T07:29:16.848Z,101131.91
2023-04-16T07:31:43.442Z,101141.56
2023-04-16T07:34:10.088Z,101134.75
2023-04-16T07:36:36.735Z,101134.06
2023-04-16T07:39:04.886Z,101133.44
2023-04-16T07:41:31.605Z,101136.22
2023-04-16T07:43:58.441Z,101145.97
2023-04-16T07:46:28.358Z,101142.78
2023-04-16T07:48:59.849Z,101145.56
2023-04-16T07:51:26.574Z,101145.63
2023-04-16T07:53:53.192Z,101145.66
2023-04-16T07:56:19.724Z,101156.94
2023-04-16T07:58:46.269Z,101156.13
2023-04-16T08:01:12.857Z,101157.88
2023-04-16T08:03:39.515Z,101164.06
2023-04-16T08:06:06.797Z,101163.34
2023-04-16T08:08:33.351Z,101169.53
2023-04-16T08:11:00.382Z,101162.72
2023-04-16T08:13:27.002Z,101155.03
2023-04-16T08:15:53.651Z,101155.13
2023-04-16T08:18:20.384Z,101162.19
2023-04-16T08:20:47.033Z,101164.03
2023-04-16T08:23:13.559Z,101160.69
2023-04-16T08:25:40.302Z,101163.31
2023-04-16T08:28:06.852Z,101162.41
2023-04-16T08:30:33.644Z,101158.81
2023-04-16T08:33:00.492Z,101157.00
2023-04-16T08:35:27.518Z,101157.75
2023-04-16T08:37:54.335Z,101162.84
2023-04-16T08:40:21.283Z,101160.16
2023-04-16T08:42:53.875Z,101162.78
2023-04-16T08:45:20.441Z,101165.41
2023-04-16T08:47:50.057Z,101156.66
2023-04-16T08:50:22.355Z,101158.28
2023-04-16T08:52:56.844Z,101156.50
2023-04-16T08:55:29.847Z,101158.19
2023-04-16T08:57:58.778Z,101155.50
2023-04-16T09:00:25.547Z,101151.09
2023-04-16T09:02:53.193Z,101155.50
2023-04-16T09:05:22.782Z,101152.91
2023-04-16T09:07:49.428Z,101156.41
2023-04-16T09:10:16.621Z,101158.13
2023-04-16T09:12:43.751Z,101160.72
2023-04-16T09:15:11.897Z,101153.69
2023-04-16T09:17:39.341Z,101156.31
2023-04-16T09:20:08.975Z,101164.16
2023-04-16T09:22:36.788Z,101168.59
2023-04-16T09:25:03.787Z,101166.09
2023-04-16T09:27:30.943Z,101168.78
2023-04-16T09:29:57.738Z,101172.31
2023-04-16T09:32:27.388Z,101168.91
2023-04-16T09:37:33.714Z,101175.06
2023-04-16T09:40:02.247Z,101174.22
2023-04-16T09:42:31.922Z,101179.44
2023-04-16T09:45:01.428Z,101188.19
2023-04-16T09:47:45.973Z,101182.13
2023-04-16T09:50:18.627Z,101182.13
2023-04-16T09:52:48.881Z,101182.97
2023-04-16T09:55:15.494Z,101183.03
2023-04-16T09:57:42.047Z,101181.31
2023-04-16T10:00:10.235Z,101176.09
2023-04-16T10:02:41.909Z,101177.81
2023-04-16T10:05:09.198Z,101186.53
2023-04-16T10:07:37.246Z,101185.66
2023-04-16T10:10:04.797Z,101189.09
2023-04-16T10:12:32.919Z,101187.34
2023-04-16T10:15:00.103Z,101193.38
2023-04-16T10:17:30.087Z,101189.06
2023-04-16T10:19:58.394Z,101193.41
2023-04-16T10:22:26.218Z,101189.94
2023-04-16T10:24:53.425Z,101182.06
2023-04-16T10:27:20.773Z,101181.13
2023-04-16T10:29:48.923Z,101185.44
2023-04-16T10:32:17.894Z,101188.06
2023-04-16T10:34:44.715Z,101189.81
2023-04-16T10:37:11.257Z,101193.31
2023-04-16T10:39:38.238Z,101198.53
2023-04-16T10:42:10.151Z,101197.66
2023-04-16T10:44:36.714Z,101188.00
2023-04-16T10:47:11.157Z,101193.22
2023-04-16T10:49:37.789Z,101192.31
2023-04-16T10:52:17.160Z,101192.28
2023-04-16T10:54:44.036Z,101201.78
2023-04-16T10:57:16.115Z,101198.22
2023-04-16T10:59:44.105Z,101196.44
2023-04-16T11:02:16.098Z,101198.16
2023-04-16T11:04:45.605Z,101196.38
2023-04-16T11:10:05.200Z,101189.34
2023-04-16T11:15:15.415Z,101196.13
2023-04-16T11:17:45.434Z,101196.31
2023-04-16T11:22:54.973Z,101208.56
2023-04-16T11:27:59.286Z,101204.06
2023-04-16T11:30:31.042Z,101204.84
2023-04-16T11:32:57.698Z,101206.59
2023-04-16T11:35:24.444Z,101208.28
2023-04-16T11:37:56.718Z,101206.44
2023-04-16T11:40:23.973Z,101208.94
2023-04-16T11:42:50.697Z,101197.53
2023-04-16T11:45:19.389Z,101204.47
2023-04-16T11:47:51.888Z,101199.22
2023-04-16T11:52:57.462Z,101206.16
2023-04-16T11:55:24.732Z,101200.84
2023-04-16T11:57:52.138Z,101202.59
2023-04-16T12:00:23.101Z,101204.31
2023-04-16T12:02:52.682Z,101205.13
2023-04-16T12:05:34.647Z,101207.72
2023-04-16T12:08:04.095Z,101198.06
2023-04-16T12:10:34.997Z,101202.50
2023-04-16T12:13:17.769Z,101202.56
2023-04-16T12:15:47.185Z,101200.13
2023-04-16T12:18:15.029Z,101203.63
2023-04-16T12:20:43.375Z,101194.91
2023-04-16T12:23:11.512Z,101194.97
2023-04-16T12:25:38.088Z,101200.31
2023-04-16T12:28:04.863Z,101197.78
2023-04-16T12:30:31.525Z,101197.75
2023-04-16T12:33:17.151Z,101204.75
2023-04-16T12:35:44.997Z,101203.84
2023-04-16T12:38:12.185Z,101201.31
2023-04-16T12:40:38.839Z,101207.47
2023-04-16T12:43:05.580Z,101204.84
2023-04-16T12:45:32.143Z,101201.31
2023-04-16T12:47:59.264Z,101206.63
2023-04-16T12:50:26.082Z,101203.28
2023-04-16T12:52:52.636Z,101206.81
2023-04-16T12:55:20.120Z,101208.69
2023-04-16T12:57:49.171Z,101199.25
2023-04-16T13:00:16.377Z,101201.06
2023-04-16T13:02:43.125Z,101201.13
2023-04-16T13:05:10.176Z,101201.22
2023-04-16T13:07:36.713Z,101209.97
2023-04-16T13:10:03.466Z,101203.84
2023-04-16T13:12:30.050Z,101195.22
2023-04-16T13:14:56.615Z,101200.44
2023-04-16T13:17:23.179Z,101190.00
2023-04-16T13:19:49.932Z,101183.94
2023-04-16T13:22:16.546Z,101182.19
2023-04-16T13:24:43.065Z,101183.03
2023-04-16T13:27:09.834Z,101177.00
2023-04-16T13:29:36.758Z,101174.38
2023-04-16T13:32:04.014Z,101178.72
2023-04-16T13:34:30.819Z,101170.94
2023-04-16T13:36:57.376Z,101177.06
2023-04-16T13:39:24.034Z,101182.28
2023-04-16T13:41:51.416Z,101181.44
2023-04-16T13:44:18.118Z,101176.22
2023-04-16T13:46:47.684Z,101179.72
2023-04-16T13:49:14.867Z,101184.06
2023-04-16T13:51:44.558Z,101170.13
2023-04-16T13:54:11.114Z,101172.72
2023-04-16T13:56:37.828Z,101177.91
2023-04-16T13:59:04.467Z,101170.94
2023-04-16T14:01:31.144Z,101169.16
2023-04-16T14:03:57.751Z,101177.88
2023-04-16T14:06:24.363Z,101183.94
2023-04-16T14:08:51.012Z,101181.31
2023-04-16T14:11:17.578Z,101175.19
2023-04-16T14:13:44.124Z,101178.66
2023-04-16T14:16:10.935Z,101183.00
2023-04-16T14:18:41.922Z,101184.75
2023-04-16T14:21:08.982Z,101186.53
2023-04-16T14:23:35.668Z,101173.47
2023-04-16T14:26:02.229Z,101179.53
2023-04-16T14:28:28.845Z,101177.78
2023-04-16T14:30:55.432Z,101184.75
2023-04-16T14:33:21.976Z,101182.97
2023-04-16T14:35:50.371Z,101177.75
2023-04-16T14:38:16.998Z,101182.13
2023-04-16T14:40:43.564Z,101176.03
2023-04-16T14:43:10.138Z,101174.31
2023-04-16T14:45:39.068Z,101183.88
2023-04-16T14:48:06.357Z,101180.44
2023-04-16T14:50:37.925Z,101172.59
2023-04-16T14:53:05.992Z,101172.59
2023-04-16T14:55:32.880Z,101169.09
2023-04-16T14:57:59.874Z,101176.09
2023-04-16T15:00:27.543Z,101172.59
2023-04-16T15:02:55.651Z,101165.59
2023-04-16T15:05:22.327Z,101166.41
2023-04-16T15:07:48.974Z,101158.53
2023-04-16T15:10:15.569Z,101161.13
2023-04-16T15:12:42.154Z,101155.91
2023-04-16T15:15:09.573Z,101148.03
2023-04-16T15:17:36.231Z,101156.72
2023-04-16T15:20:06.619Z,101151.41
2023-04-16T15:22:33.275Z,101156.63
2023-04-16T15:24:59.983Z,101146.19
2023-04-16T15:27:26.902Z,101147.09
2023-04-16T15:29:54.054Z,101146.28
2023-04-16T15:32:20.878Z,101139.38
2023-04-16T15:34:47.627Z,101142.94
2023-04-16T15:37:14.217Z,101137.75
2023-04-16T15:39:40.825Z,101139.47
2023-04-16T15:42:08.120Z,101142.09
2023-04-16T15:44:35.040Z,101141.19
2023-04-16T15:47:01.636Z,101136.88
2023-04-16T15:49:28.239Z,101139.47
2023-04-16T15:51:55.949Z,101139.47
2023-04-16T15:54:22.669Z,101139.53
2023-04-16T15:56:49.332Z,101136.06
2023-04-16T15:59:16.136Z,101135.16
2023-04-16T16:01:42.790Z,101127.34
2023-04-16T16:04:09.652Z,101129.09
2023-04-16T16:06:38.153Z,101122.13
2023-04-16T16:09:05.373Z,101121.28
2023-04-16T16:11:32.637Z,101131.72
2023-04-16T16:14:01.481Z,101134.31
2023-04-16T16:16:28.872Z,101128.28
2023-04-16T16:18:55.787Z,101128.22
2023-04-16T16:21:22.740Z,101130.84
2023-04-16T16:23:49.391Z,101123.88
2023-04-16T16:26:16.085Z,101127.38
2023-04-16T16:28:44.719Z,101125.66
2023-04-16T16:31:12.528Z,101123.06
2023-04-16T16:33:40.460Z,101119.53
2023-04-16T16:36:10.631Z,101119.50
2023-04-16T16:38:37.226Z,101122.19
2023-04-16T16:41:03.791Z,101123.81
2023-04-16T16:43:30.364Z,101130.75
2023-04-16T16:45:56.935Z,101118.59
2023-04-16T16:48:23.529Z,101124.69
2023-04-16T16:50:50.296Z,101129.00
2023-04-16T16:53:17.117Z,101125.50
2023-04-16T16:55:43.697Z,101116.84
2023-04-16T16:58:11.117Z,101122.91
2023-04-16T17:00:38.146Z,101126.41
2023-04-16T17:03:05.030Z,101125.53
2023-04-16T17:05:31.772Z,101122.91
2023-04-16T17:07:58.724Z,101128.13
2023-04-16T17:10:25.410Z,101132.50
2023-04-16T17:12:52.177Z,101134.25
2023-04-16T17:15:21.785Z,101133.41
2023-04-16T17:17:48.868Z,101134.25
2023-04-16T17:20:15.747Z,101131.66
2023-04-16T17:22:42.653Z,101130.78
2023-04-16T17:25:09.931Z,101126.47
2023-04-16T17:27:36.699Z,101121.28
2023-04-16T17:30:05.434Z,101130.03
2023-04-16T17:32:33.023Z,101133.53
2023-04-16T17:35:01.187Z,101124.03
2023-04-16T17:37:28.647Z,101125.78
2023-04-16T17:39:55.244Z,101133.66
2023-04-16T17:42:21.785Z,101128.44
2023-04-16T17:44:48.384Z,101137.16
2023-04-16T17:47:14.985Z,101142.38
2023-04-16T17:49:41.514Z,101141.53
2023-04-16T17:52:08.105Z,101139.81
2023-04-16T17:54:34.619Z,101137.19
2023-04-16T17:57:02.040Z,101134.59
2023-04-16T17:59:28.960Z,101133.72
2023-04-16T18:01:56.676Z,101130.22
2023-04-16T18:04:23.657Z,101132.84
2023-04-16T18:06:50.512Z,101134.59
2023-04-16T18:09:17.328Z,101134.59
2023-04-16T18:11:43.851Z,101134.59
2023-04-16T18:14:13.270Z,101145.91
2023-04-16T18:16:39.954Z,101144.19
2023-04-16T18:19:06.573Z,101138.09
2023-04-16T18:21:33.933Z,101141.56
2023-04-16T18:24:03.443Z,101145.06
2023-04-16T18:26:30.170Z,101150.28
2023-04-16T18:28:56.939Z,101153.78
2023-04-16T18:31:23.645Z,101148.56
2023-04-16T18:33:57.315Z,101155.50
2023-04-16T18:36:24.523Z,101159.84
2023-04-16T18:39:01.127Z,101160.72
2023-04-16T18:41:38.158Z,101159.84
2023-04-16T18:44:04.852Z,101161.56
2023-04-16T18:46:31.509Z,101164.16
2023-04-16T18:48:59.118Z,101164.16
2023-04-16T18:51:27.370Z,101167.63
2023-04-16T18:53:53.962Z,101164.19
2023-04-16T18:56:20.849Z,101160.69
2023-04-16T18:58:47.852Z,101163.28
2023-04-16T19:01:14.492Z,101162.44
2023-04-16T19:03:41.198Z,101162.41
2023-04-16T19:06:08.091Z,101164.16
2023-04-16T19:08:34.653Z,101160.69
2023-04-16T19:11:01.198Z,101162.41
2023-04-16T19:13:27.953Z,101159.81
2023-04-16T19:15:59.772Z,101166.75
2023-04-16T19:18:26.700Z,101168.50
2023-04-16T19:21:01.535Z,101166.75
2023-04-16T19:23:28.518Z,101165.00
2023-04-16T19:25:56.730Z,101162.38
2023-04-16T19:28:23.917Z,101174.53
2023-04-16T19:30:51.533Z,101178.00
2023-04-16T19:33:18.979Z,101177.09
2023-04-16T19:35:46.395Z,101177.97
2023-04-16T19:38:13.136Z,101185.78
2023-04-16T19:40:40.376Z,101181.44
2023-04-16T19:43:07.017Z,101188.38
2023-04-16T19:45:33.600Z,101188.34
2023-04-16T19:48:00.297Z,101192.72
2023-04-16T19:50:26.917Z,101200.50
2023-04-16T19:52:53.450Z,101198.72
2023-04-16T19:55:20.140Z,101200.47
2023-04-16T19:57:48.237Z,101196.97
2023-04-16T20:00:15.270Z,101201.31
2023-04-16T20:02:42.074Z,101198.69
2023-04-16T20:05:09.304Z,101196.06
2023-04-16T20:07:35.949Z,101203.88
2023-04-16T20:10:03.118Z,101200.38
2023-04-16T20:12:29.756Z,101204.72
2023-04-16T20:14:56.326Z,101195.16
2023-04-16T20:17:22.898Z,101197.78
2023-04-16T20:19:51.243Z,101199.47
2023-04-16T20:22:18.802Z,101199.47
2023-04-16T20:24:47.775Z,101194.25
2023-04-16T20:27:15.301Z,101199.44
2023-04-16T20:29:42.048Z,101195.97
2023-04-16T20:32:08.595Z,101195.09
2023-04-16T20:34:36.684Z,101198.56
2023-04-16T20:37:04.535Z,101195.09
2023-04-16T20:39:34.260Z,101186.41
2023-04-16T20:42:04.151Z,101193.31
2023-04-16T20:44:40.365Z,101188.00
2023-04-16T20:47:08.420Z,101195.00
2023-04-16T20:49:35.367Z,101190.66
2023-04-16T20:52:02.752Z,101189.81
2023-04-16T20:54:30.176Z,101191.50
2023-04-16T20:56:57.752Z,101190.63
2023-04-16T20:59:24.960Z,101197.56
2023-04-16T21:01:52.903Z,101191.50
2023-04-16T21:04:19.612Z,101186.25
2023-04-16T21:06:46.756Z,101183.66
2023-04-16T21:09:13.460Z,101189.72
2023-04-16T21:11:40.438Z,101182.75
2023-04-16T21:14:07.045Z,101185.34
2023-04-16T21:16:33.673Z,101174.06
2023-04-16T21:19:00.268Z,101174.03
2023-04-16T21:21:27.536Z,101170.56
2023-04-16T21:23:54.124Z,101169.66
2023-04-16T21:26:21.011Z,101171.38
2023-04-16T21:28:47.576Z,101170.47
2023-04-16T21:31:14.164Z,101168.69
2023-04-16T21:33:40.822Z,101170.44
2023-04-16T21:36:07.627Z,101169.53
2023-04-16T21:38:34.199Z,101172.97
2023-04-16T21:41:01.928Z,101169.53
2023-04-16T21:43:32.603Z,101166.91
2023-04-16T21:45:59.783Z,101178.13
2023-04-16T21:48:27.072Z,101177.28
2023-04-16T21:50:56.140Z,101176.38
2023-04-16T21:53:22.686Z,101180.66
2023-04-16T21:55:49.247Z,101179.78
2023-04-16T21:58:15.863Z,101178.03
2023-04-16T22:00:42.535Z,101184.97
2023-04-16T22:03:12.445Z,101182.38
2023-04-16T22:05:39.275Z,101183.19
2023-04-16T22:08:23.591Z,101178.81
2023-04-16T22:10:51.496Z,101177.97
2023-04-16T22:13:18.230Z,101182.31
2023-04-16T22:15:44.795Z,101182.31
2023-04-16T22:18:11.497Z,101178.81
2023-04-16T22:20:39.299Z,101184.03
2023-04-16T22:23:06.938Z,101179.69
2023-04-16T22:25:33.681Z,101182.31
2023-04-16T22:28:01.603Z,101181.41
2023-04-16T22:30:28.343Z,101183.16
2023-04-16T22:32:55.265Z,101185.75
2023-04-16T22:35:21.995Z,101185.75
2023-04-16T22:37:48.610Z,101182.25
2023-04-16T22:40:15.964Z,101182.25
2023-04-16T22:42:42.724Z,101189.22
2023-04-16T22:45:09.697Z,101189.19
2023-04-16T22:47:36.436Z,101184.00
2023-04-16T22:50:03.309Z,101189.19
2023-04-16T22:52:29.967Z,101185.69
2023-04-16T22:54:56.518Z,101183.94
2023-04-16T22:57:25.575Z,101189.97
2023-04-16T22:59:53.177Z,101196.00
2023-04-16T23:02:21.297Z,101194.28
2023-04-16T23:04:48.085Z,101197.72
2023-04-16T23:07:15.590Z,101194.25
2023-04-16T23:09:42.700Z,101193.41
2023-04-16T23:12:09.384Z,101191.63
2023-04-16T23:14:37.035Z,101199.44
2023-04-16T23:17:03.811Z,101203.75
2023-04-16T23:19:31.279Z,101207.19
2023-04-16T23:21:57.904Z,101201.09
2023-04-16T23:24:24.517Z,101205.44
2023-04-16T23:26:52.475Z,101212.34
2023-04-16T23:29:20.751Z,101206.25
2023-04-16T23:31:47.725Z,101207.13
2023-04-16T23:34:14.695Z,101205.41
2023-04-16T23:36:41.393Z,101205.41
2023-04-16T23:39:07.957Z,101206.25
2023-04-16T23:41:34.800Z,101199.34
2023-04-16T23:44:01.425Z,101201.88
2023-04-16T23:46:27.996Z,101202.75
2023-04-16T23:48:55.426Z,101207.97
2023-04-16T23:51:22.324Z,101205.38
2023-04-16T23:53:48.930Z,101207.09
2023-04-16T23:56:15.970Z,101201.88
2023-04-16T23:58:42.529Z,101201.03
